sensor_id;sensor_type;location;lat;lon;timestamp;temperature;humidity
68189;DHT22;66299;47.514;19.218;2023-04-25T00:01:38;11.11;92.99
68189;DHT22;66299;47.514;19.218;2023-04-25T00:04:09;11.09;93.52
68189;DHT22;66299;47.514;19.218;2023-04-25T00:06:51;11.19;92.69
68189;DHT22;66299;47.514;19.218;2023-04-25T00:09:20;11.15;93.06
68189;DHT22;66299;47.514;19.218;2023-04-25T00:11:49;11.11;93.45
68189;DHT22;66299;47.514;19.218;2023-04-25T00:14:20;11.12;93.06
68189;DHT22;66299;47.514;19.218;2023-04-25T00:16:48;11.16;92.97
68189;DHT22;66299;47.514;19.218;2023-04-25T00:19:18;11.16;92.34
68189;DHT22;66299;47.514;19.218;2023-04-25T00:21:49;11.15;92.96
68189;DHT22;66299;47.514;19.218;2023-04-25T00:24:18;11.09;92.62
68189;DHT22;66299;47.514;19.218;2023-04-25T00:26:49;11.12;93.11
68189;DHT22;66299;47.514;19.218;2023-04-25T00:29:22;11.14;92.46
68189;DHT22;66299;47.514;19.218;2023-04-25T00:31:51;11.09;92.58
68189;DHT22;66299;47.514;19.218;2023-04-25T00:34:23;11.14;92.15
68189;DHT22;66299;47.514;19.218;2023-04-25T00:36:55;11.15;91.99
68189;DHT22;66299;47.514;19.218;2023-04-25T00:39:24;11.07;91.97
68189;DHT22;66299;47.514;19.218;2023-04-25T00:41:53;11.07;91.67
68189;DHT22;66299;47.514;19.218;2023-04-25T00:44:25;11.04;91.45
68189;DHT22;66299;47.514;19.218;2023-04-25T00:47:03;11.08;91.22
68189;DHT22;66299;47.514;19.218;2023-04-25T00:49:35;11.07;90.99
68189;DHT22;66299;47.514;19.218;2023-04-25T00:52:04;11.04;91.09
68189;DHT22;66299;47.514;19.218;2023-04-25T00:54:36;11.00;91.46
68189;DHT22;66299;47.514;19.218;2023-04-25T00:57:08;11.07;90.79
68189;DHT22;66299;47.514;19.218;2023-04-25T00:59:40;11.01;91.08
68189;DHT22;66299;47.514;19.218;2023-04-25T01:02:14;11.08;90.15
68189;DHT22;66299;47.514;19.218;2023-04-25T01:04:44;11.02;90.34
68189;DHT22;66299;47.514;19.218;2023-04-25T01:07:15;11.00;91.46
68189;DHT22;66299;47.514;19.218;2023-04-25T01:09:47;11.04;89.81
68189;DHT22;66299;47.514;19.218;2023-04-25T01:12:20;11.01;89.77
68189;DHT22;66299;47.514;19.218;2023-04-25T01:14:54;11.02;89.45
68189;DHT22;66299;47.514;19.218;2023-04-25T01:17:22;10.97;90.12
68189;DHT22;66299;47.514;19.218;2023-04-25T01:19:50;11.07;88.45
68189;DHT22;66299;47.514;19.218;2023-04-25T01:22:21;11.19;87.59
68189;DHT22;66299;47.514;19.218;2023-04-25T01:24:50;11.15;87.55
68189;DHT22;66299;47.514;19.218;2023-04-25T01:27:25;11.11;88.00
68189;DHT22;66299;47.514;19.218;2023-04-25T01:29:57;11.11;87.70
68189;DHT22;66299;47.514;19.218;2023-04-25T01:32:27;11.15;87.37
68189;DHT22;66299;47.514;19.218;2023-04-25T01:34:58;11.07;87.79
68189;DHT22;66299;47.514;19.218;2023-04-25T01:37:29;11.12;87.93
68189;DHT22;66299;47.514;19.218;2023-04-25T01:39:58;11.12;87.65
68189;DHT22;66299;47.514;19.218;2023-04-25T01:42:29;11.05;88.21
68189;DHT22;66299;47.514;19.218;2023-04-25T01:45:00;11.05;88.44
68189;DHT22;66299;47.514;19.218;2023-04-25T01:47:29;11.01;88.48
68189;DHT22;66299;47.514;19.218;2023-04-25T01:49:59;11.04;87.86
68189;DHT22;66299;47.514;19.218;2023-04-25T01:52:32;11.04;87.96
68189;DHT22;66299;47.514;19.218;2023-04-25T01:55:03;10.90;88.73
68189;DHT22;66299;47.514;19.218;2023-04-25T01:57:33;11.00;87.70
68189;DHT22;66299;47.514;19.218;2023-04-25T02:00:03;10.97;87.85
68189;DHT22;66299;47.514;19.218;2023-04-25T02:02:39;10.90;87.99
68189;DHT22;66299;47.514;19.218;2023-04-25T02:05:09;10.90;88.11
68189;DHT22;66299;47.514;19.218;2023-04-25T02:07:41;10.90;88.13
68189;DHT22;66299;47.514;19.218;2023-04-25T02:10:14;10.84;88.47
68189;DHT22;66299;47.514;19.218;2023-04-25T02:12:43;10.81;88.48
68189;DHT22;66299;47.514;19.218;2023-04-25T02:15:12;10.84;88.29
68189;DHT22;66299;47.514;19.218;2023-04-25T02:17:42;10.92;87.83
68189;DHT22;66299;47.514;19.218;2023-04-25T02:20:12;10.91;88.24
68189;DHT22;66299;47.514;19.218;2023-04-25T02:22:44;10.91;88.14
68189;DHT22;66299;47.514;19.218;2023-04-25T02:25:14;11.11;86.68
68189;DHT22;66299;47.514;19.218;2023-04-25T02:27:45;11.19;85.60
68189;DHT22;66299;47.514;19.218;2023-04-25T02:30:14;11.07;86.42
68189;DHT22;66299;47.514;19.218;2023-04-25T02:32:50;11.09;86.06
68189;DHT22;66299;47.514;19.218;2023-04-25T02:35:21;11.12;85.75
68189;DHT22;66299;47.514;19.218;2023-04-25T02:37:55;11.12;85.54
68189;DHT22;66299;47.514;19.218;2023-04-25T02:40:25;11.09;85.66
68189;DHT22;66299;47.514;19.218;2023-04-25T02:42:55;11.18;84.59
68189;DHT22;66299;47.514;19.218;2023-04-25T02:45:23;11.07;85.65
68189;DHT22;66299;47.514;19.218;2023-04-25T02:47:52;11.18;84.47
68189;DHT22;66299;47.514;19.218;2023-04-25T02:50:23;11.16;84.47
68189;DHT22;66299;47.514;19.218;2023-04-25T02:52:52;11.08;85.16
68189;DHT22;66299;47.514;19.218;2023-04-25T02:55:22;11.14;84.73
68189;DHT22;66299;47.514;19.218;2023-04-25T02:57:54;11.21;83.75
68189;DHT22;66299;47.514;19.218;2023-04-25T03:00:26;11.08;84.44
68189;DHT22;66299;47.514;19.218;2023-04-25T03:02:58;11.16;83.02
68189;DHT22;66299;47.514;19.218;2023-04-25T03:05:28;11.19;82.78
68189;DHT22;66299;47.514;19.218;2023-04-25T03:07:59;11.25;81.69
68189;DHT22;66299;47.514;19.218;2023-04-25T03:10:30;11.25;81.37
68189;DHT22;66299;47.514;19.218;2023-04-25T03:12:58;11.25;80.96
68189;DHT22;66299;47.514;19.218;2023-04-25T03:15:26;11.21;81.32
68189;DHT22;66299;47.514;19.218;2023-04-25T03:17:56;11.21;80.79
68189;DHT22;66299;47.514;19.218;2023-04-25T03:20:27;11.22;80.72
68189;DHT22;66299;47.514;19.218;2023-04-25T03:22:56;11.11;81.40
68189;DHT22;66299;47.514;19.218;2023-04-25T03:25:28;11.14;81.05
68189;DHT22;66299;47.514;19.218;2023-04-25T03:27:59;11.08;82.06
68189;DHT22;66299;47.514;19.218;2023-04-25T03:30:29;11.09;81.88
68189;DHT22;66299;47.514;19.218;2023-04-25T03:32:59;11.05;82.22
68189;DHT22;66299;47.514;19.218;2023-04-25T03:35:28;11.11;81.71
68189;DHT22;66299;47.514;19.218;2023-04-25T03:37:58;11.04;82.42
68189;DHT22;66299;47.514;19.218;2023-04-25T03:40:28;11.09;81.92
68189;DHT22;66299;47.514;19.218;2023-04-25T03:42:57;10.97;82.78
68189;DHT22;66299;47.514;19.218;2023-04-25T03:45:30;11.05;81.94
68189;DHT22;66299;47.514;19.218;2023-04-25T03:47:59;11.01;82.37
68189;DHT22;66299;47.514;19.218;2023-04-25T03:50:27;11.07;82.06
68189;DHT22;66299;47.514;19.218;2023-04-25T03:52:55;11.04;82.22
68189;DHT22;66299;47.514;19.218;2023-04-25T03:55:25;11.02;82.00
68189;DHT22;66299;47.514;19.218;2023-04-25T03:57:54;11.05;81.68
68189;DHT22;66299;47.514;19.218;2023-04-25T04:00:27;11.00;81.53
68189;DHT22;66299;47.514;19.218;2023-04-25T04:02:56;10.94;82.44
68189;DHT22;66299;47.514;19.218;2023-04-25T04:05:25;10.98;81.70
68189;DHT22;66299;47.514;19.218;2023-04-25T04:07:56;10.90;82.44
68189;DHT22;66299;47.514;19.218;2023-04-25T04:10:25;10.98;81.51
68189;DHT22;66299;47.514;19.218;2023-04-25T04:12:54;10.91;82.20
68189;DHT22;66299;47.514;19.218;2023-04-25T04:15:23;10.94;81.23
68189;DHT22;66299;47.514;19.218;2023-04-25T04:17:53;10.95;81.58
68189;DHT22;66299;47.514;19.218;2023-04-25T04:20:25;10.91;81.42
68189;DHT22;66299;47.514;19.218;2023-04-25T04:22:55;10.90;81.48
68189;DHT22;66299;47.514;19.218;2023-04-25T04:25:24;10.87;81.77
68189;DHT22;66299;47.514;19.218;2023-04-25T04:27:55;10.82;82.58
68189;DHT22;66299;47.514;19.218;2023-04-25T04:30:25;10.82;82.15
68189;DHT22;66299;47.514;19.218;2023-04-25T04:32:59;10.81;81.57
68189;DHT22;66299;47.514;19.218;2023-04-25T04:35:30;10.81;81.63
68189;DHT22;66299;47.514;19.218;2023-04-25T04:37:58;10.75;82.19
68189;DHT22;66299;47.514;19.218;2023-04-25T04:40:27;10.73;82.67
68189;DHT22;66299;47.514;19.218;2023-04-25T04:42:57;10.73;82.76
68189;DHT22;66299;47.514;19.218;2023-04-25T04:45:25;10.73;82.94
68189;DHT22;66299;47.514;19.218;2023-04-25T04:47:55;10.71;82.75
68189;DHT22;66299;47.514;19.218;2023-04-25T04:50:23;10.70;82.79
68189;DHT22;66299;47.514;19.218;2023-04-25T04:52:55;10.67;83.21
68189;DHT22;66299;47.514;19.218;2023-04-25T04:55:26;10.67;82.65
68189;DHT22;66299;47.514;19.218;2023-04-25T04:57:57;10.60;84.26
68189;DHT22;66299;47.514;19.218;2023-04-25T05:00:27;10.57;83.83
68189;DHT22;66299;47.514;19.218;2023-04-25T05:02:58;10.52;84.84
68189;DHT22;66299;47.514;19.218;2023-04-25T05:05:27;10.53;84.66
68189;DHT22;66299;47.514;19.218;2023-04-25T05:08:00;10.49;85.55
68189;DHT22;66299;47.514;19.218;2023-04-25T05:10:29;10.47;85.11
68189;DHT22;66299;47.514;19.218;2023-04-25T05:13:00;10.44;85.51
68189;DHT22;66299;47.514;19.218;2023-04-25T05:15:31;10.44;85.62
68189;DHT22;66299;47.514;19.218;2023-04-25T05:18:02;10.46;86.20
68189;DHT22;66299;47.514;19.218;2023-04-25T05:20:32;10.40;85.60
68189;DHT22;66299;47.514;19.218;2023-04-25T05:23:02;10.40;86.24
68189;DHT22;66299;47.514;19.218;2023-04-25T05:25:30;10.32;85.87
68189;DHT22;66299;47.514;19.218;2023-04-25T05:28:00;10.30;85.75
68189;DHT22;66299;47.514;19.218;2023-04-25T05:30:30;10.23;87.48
68189;DHT22;66299;47.514;19.218;2023-04-25T05:32:59;10.12;93.75
68189;DHT22;66299;47.514;19.218;2023-04-25T05:35:30;10.05;87.45
68189;DHT22;66299;47.514;19.218;2023-04-25T05:37:59;10.03;87.89
68189;DHT22;66299;47.514;19.218;2023-04-25T05:40:28;9.99;89.26
68189;DHT22;66299;47.514;19.218;2023-04-25T05:42:59;9.98;89.24
68189;DHT22;66299;47.514;19.218;2023-04-25T05:45:30;10.01;89.46
68189;DHT22;66299;47.514;19.218;2023-04-25T05:48:04;10.03;90.06
68189;DHT22;66299;47.514;19.218;2023-04-25T05:50:32;9.91;88.60
68189;DHT22;66299;47.514;19.218;2023-04-25T05:53:03;9.86;89.37
68189;DHT22;66299;47.514;19.218;2023-04-25T05:55:34;9.86;88.63
68189;DHT22;66299;47.514;19.218;2023-04-25T05:58:04;9.77;89.77
68189;DHT22;66299;47.514;19.218;2023-04-25T06:00:36;9.68;90.43
68189;DHT22;66299;47.514;19.218;2023-04-25T06:03:05;9.57;90.67
68189;DHT22;66299;47.514;19.218;2023-04-25T06:05:38;9.48;91.51
68189;DHT22;66299;47.514;19.218;2023-04-25T06:08:06;9.43;92.03
68189;DHT22;66299;47.514;19.218;2023-04-25T06:10:38;9.40;91.68
68189;DHT22;66299;47.514;19.218;2023-04-25T06:13:07;9.26;96.37
68189;DHT22;66299;47.514;19.218;2023-04-25T06:15:37;9.16;95.24
68189;DHT22;66299;47.514;19.218;2023-04-25T06:18:06;8.92;94.51
68189;DHT22;66299;47.514;19.218;2023-04-25T06:20:36;8.90;95.23
68189;DHT22;66299;47.514;19.218;2023-04-25T06:23:05;8.89;94.22
68189;DHT22;66299;47.514;19.218;2023-04-25T06:25:34;8.82;96.83
68189;DHT22;66299;47.514;19.218;2023-04-25T06:28:07;8.86;94.99
68189;DHT22;66299;47.514;19.218;2023-04-25T06:30:36;8.86;97.40
68189;DHT22;66299;47.514;19.218;2023-04-25T06:33:05;8.83;95.74
68189;DHT22;66299;47.514;19.218;2023-04-25T06:35:37;8.78;95.76
68189;DHT22;66299;47.514;19.218;2023-04-25T06:38:05;8.80;96.47
68189;DHT22;66299;47.514;19.218;2023-04-25T06:40:33;8.79;96.09
68189;DHT22;66299;47.514;19.218;2023-04-25T06:43:04;8.82;95.81
68189;DHT22;66299;47.514;19.218;2023-04-25T06:45:32;8.86;96.96
68189;DHT22;66299;47.514;19.218;2023-04-25T06:48:02;8.99;95.25
68189;DHT22;66299;47.514;19.218;2023-04-25T06:50:32;9.06;96.56
68189;DHT22;66299;47.514;19.218;2023-04-25T06:53:01;9.17;95.34
68189;DHT22;66299;47.514;19.218;2023-04-25T06:55:30;9.33;94.88
68189;DHT22;66299;47.514;19.218;2023-04-25T06:57:59;9.36;95.34
68189;DHT22;66299;47.514;19.218;2023-04-25T07:00:31;9.59;96.09
68189;DHT22;66299;47.514;19.218;2023-04-25T07:03:00;9.84;96.53
68189;DHT22;66299;47.514;19.218;2023-04-25T07:05:29;9.78;94.63
68189;DHT22;66299;47.514;19.218;2023-04-25T07:08:00;9.85;95.42
68189;DHT22;66299;47.514;19.218;2023-04-25T07:10:30;9.88;94.74
68189;DHT22;66299;47.514;19.218;2023-04-25T07:12:59;9.96;94.20
68189;DHT22;66299;47.514;19.218;2023-04-25T07:15:29;10.17;95.43
68189;DHT22;66299;47.514;19.218;2023-04-25T07:18:00;10.16;94.57
68189;DHT22;66299;47.514;19.218;2023-04-25T07:20:28;10.40;95.10
68189;DHT22;66299;47.514;19.218;2023-04-25T07:22:57;10.40;94.97
68189;DHT22;66299;47.514;19.218;2023-04-25T07:25:28;10.46;93.92
68189;DHT22;66299;47.514;19.218;2023-04-25T07:27:58;10.47;93.64
68189;DHT22;66299;47.514;19.218;2023-04-25T07:30:27;10.78;94.80
68189;DHT22;66299;47.514;19.218;2023-04-25T07:32:58;10.68;92.59
68189;DHT22;66299;47.514;19.218;2023-04-25T07:35:29;10.85;92.29
68189;DHT22;66299;47.514;19.218;2023-04-25T07:37:57;11.01;92.17
68189;DHT22;66299;47.514;19.218;2023-04-25T07:40:29;11.12;91.33
68189;DHT22;66299;47.514;19.218;2023-04-25T07:42:58;11.28;91.20
68189;DHT22;66299;47.514;19.218;2023-04-25T07:45:29;11.29;89.99
68189;DHT22;66299;47.514;19.218;2023-04-25T07:47:59;11.23;90.46
68189;DHT22;66299;47.514;19.218;2023-04-25T07:50:30;11.29;90.08
68189;DHT22;66299;47.514;19.218;2023-04-25T07:52:59;11.25;89.94
68189;DHT22;66299;47.514;19.218;2023-04-25T07:55:27;11.44;90.38
68189;DHT22;66299;47.514;19.218;2023-04-25T07:57:55;11.22;88.25
68189;DHT22;66299;47.514;19.218;2023-04-25T08:00:28;11.56;89.01
68189;DHT22;66299;47.514;19.218;2023-04-25T08:02:57;11.42;88.78
68189;DHT22;66299;47.514;19.218;2023-04-25T08:05:34;11.47;87.44
68189;DHT22;66299;47.514;19.218;2023-04-25T08:08:04;11.57;88.39
68189;DHT22;66299;47.514;19.218;2023-04-25T08:10:34;11.65;88.01
68189;DHT22;66299;47.514;19.218;2023-04-25T08:13:08;11.88;87.35
68189;DHT22;66299;47.514;19.218;2023-04-25T08:15:37;11.87;87.01
68189;DHT22;66299;47.514;19.218;2023-04-25T08:18:06;11.67;84.68
68189;DHT22;66299;47.514;19.218;2023-04-25T08:20:37;11.88;86.08
68189;DHT22;66299;47.514;19.218;2023-04-25T08:23:11;11.71;85.26
68189;DHT22;66299;47.514;19.218;2023-04-25T08:25:39;12.17;85.67
68189;DHT22;66299;47.514;19.218;2023-04-25T08:28:09;11.95;84.66
68189;DHT22;66299;47.514;19.218;2023-04-25T08:30:37;11.98;85.09
68189;DHT22;66299;47.514;19.218;2023-04-25T08:33:07;12.02;85.92
68189;DHT22;66299;47.514;19.218;2023-04-25T08:35:39;12.29;84.16
68189;DHT22;66299;47.514;19.218;2023-04-25T08:38:12;12.38;83.46
68189;DHT22;66299;47.514;19.218;2023-04-25T08:40:42;12.46;81.93
68189;DHT22;66299;47.514;19.218;2023-04-25T08:43:13;12.59;81.60
68189;DHT22;66299;47.514;19.218;2023-04-25T08:45:41;12.66;81.59
68189;DHT22;66299;47.514;19.218;2023-04-25T08:48:13;12.56;81.75
68189;DHT22;66299;47.514;19.218;2023-04-25T08:50:45;12.67;81.11
68189;DHT22;66299;47.514;19.218;2023-04-25T08:53:15;12.60;80.58
68189;DHT22;66299;47.514;19.218;2023-04-25T08:55:46;12.70;80.39
68189;DHT22;66299;47.514;19.218;2023-04-25T08:58:15;12.41;80.54
68189;DHT22;66299;47.514;19.218;2023-04-25T09:00:46;12.66;80.12
68189;DHT22;66299;47.514;19.218;2023-04-25T09:03:17;12.41;79.45
68189;DHT22;66299;47.514;19.218;2023-04-25T09:05:48;13.04;80.38
68189;DHT22;66299;47.514;19.218;2023-04-25T09:08:20;12.57;79.84
68189;DHT22;66299;47.514;19.218;2023-04-25T09:10:50;12.97;79.44
68189;DHT22;66299;47.514;19.218;2023-04-25T09:13:23;12.79;79.18
68189;DHT22;66299;47.514;19.218;2023-04-25T09:15:57;12.69;78.79
68189;DHT22;66299;47.514;19.218;2023-04-25T09:18:26;12.59;78.75
68189;DHT22;66299;47.514;19.218;2023-04-25T09:21:05;12.94;78.59
68189;DHT22;66299;47.514;19.218;2023-04-25T09:23:40;13.07;78.16
68189;DHT22;66299;47.514;19.218;2023-04-25T09:26:08;12.87;78.32
68189;DHT22;66299;47.514;19.218;2023-04-25T09:28:36;13.15;77.70
68189;DHT22;66299;47.514;19.218;2023-04-25T09:31:09;13.69;77.18
68189;DHT22;66299;47.514;19.218;2023-04-25T09:33:40;13.38;76.69
68189;DHT22;66299;47.514;19.218;2023-04-25T09:36:10;13.86;76.40
68189;DHT22;66299;47.514;19.218;2023-04-25T09:38:44;13.63;74.53
68189;DHT22;66299;47.514;19.218;2023-04-25T09:41:13;13.10;75.82
68189;DHT22;66299;47.514;19.218;2023-04-25T09:43:51;13.98;75.94
68189;DHT22;66299;47.514;19.218;2023-04-25T09:46:20;13.41;75.44
68189;DHT22;66299;47.514;19.218;2023-04-25T09:48:53;13.35;74.27
68189;DHT22;66299;47.514;19.218;2023-04-25T09:51:24;14.03;74.38
68189;DHT22;66299;47.514;19.218;2023-04-25T09:53:54;14.31;74.48
68189;DHT22;66299;47.514;19.218;2023-04-25T09:56:26;14.10;72.90
68189;DHT22;66299;47.514;19.218;2023-04-25T09:58:57;13.82;74.02
68189;DHT22;66299;47.514;19.218;2023-04-25T10:01:28;14.03;73.46
68189;DHT22;66299;47.514;19.218;2023-04-25T10:03:59;14.10;73.03
68189;DHT22;66299;47.514;19.218;2023-04-25T10:06:33;13.75;73.02
68189;DHT22;66299;47.514;19.218;2023-04-25T10:09:03;14.14;72.68
68189;DHT22;66299;47.514;19.218;2023-04-25T10:11:34;13.55;74.14
68189;DHT22;66299;47.514;19.218;2023-04-25T10:14:08;13.55;74.45
68189;DHT22;66299;47.514;19.218;2023-04-25T10:16:37;13.98;74.66
68189;DHT22;66299;47.514;19.218;2023-04-25T10:19:08;13.85;73.06
68189;DHT22;66299;47.514;19.218;2023-04-25T10:21:50;13.71;72.25
68189;DHT22;66299;47.514;19.218;2023-04-25T10:24:19;14.05;72.72
68189;DHT22;66299;47.514;19.218;2023-04-25T10:26:50;13.52;72.71
68189;DHT22;66299;47.514;19.218;2023-04-25T10:29:22;13.18;73.90
68189;DHT22;66299;47.514;19.218;2023-04-25T10:31:55;13.28;74.26
68189;DHT22;66299;47.514;19.218;2023-04-25T10:34:26;13.11;74.54
68189;DHT22;66299;47.514;19.218;2023-04-25T10:37:08;13.00;75.20
68189;DHT22;66299;47.514;19.218;2023-04-25T10:39:38;13.00;74.91
68189;DHT22;66299;47.514;19.218;2023-04-25T10:42:07;12.79;74.96
68189;DHT22;66299;47.514;19.218;2023-04-25T10:44:36;13.11;75.45
68189;DHT22;66299;47.514;19.218;2023-04-25T10:47:08;13.02;74.85
68189;DHT22;66299;47.514;19.218;2023-04-25T10:49:38;13.18;75.36
68189;DHT22;66299;47.514;19.218;2023-04-25T10:52:19;13.42;75.12
68189;DHT22;66299;47.514;19.218;2023-04-25T10:54:52;13.69;73.28
68189;DHT22;66299;47.514;19.218;2023-04-25T10:57:27;13.41;73.33
68189;DHT22;66299;47.514;19.218;2023-04-25T11:00:00;13.37;73.43
68189;DHT22;66299;47.514;19.218;2023-04-25T11:02:32;13.44;72.65
68189;DHT22;66299;47.514;19.218;2023-04-25T11:05:05;13.38;71.65
68189;DHT22;66299;47.514;19.218;2023-04-25T11:07:39;13.80;72.37
68189;DHT22;66299;47.514;19.218;2023-04-25T11:10:33;13.96;71.63
68189;DHT22;66299;47.514;19.218;2023-04-25T11:13:07;13.57;69.83
68189;DHT22;66299;47.514;19.218;2023-04-25T11:15:37;13.69;70.44
68189;DHT22;66299;47.514;19.218;2023-04-25T11:18:05;13.85;70.09
68189;DHT22;66299;47.514;19.218;2023-04-25T11:20:36;13.59;68.81
68189;DHT22;66299;47.514;19.218;2023-04-25T11:23:06;13.72;72.27
68189;DHT22;66299;47.514;19.218;2023-04-25T11:25:35;13.65;69.19
68189;DHT22;66299;47.514;19.218;2023-04-25T11:28:04;13.52;68.09
68189;DHT22;66299;47.514;19.218;2023-04-25T11:30:34;14.14;68.40
68189;DHT22;66299;47.514;19.218;2023-04-25T11:33:02;14.05;67.21
68189;DHT22;66299;47.514;19.218;2023-04-25T11:35:31;14.37;67.20
68189;DHT22;66299;47.514;19.218;2023-04-25T11:38:02;14.65;66.45
68189;DHT22;66299;47.514;19.218;2023-04-25T11:40:35;14.12;66.91
68189;DHT22;66299;47.514;19.218;2023-04-25T11:43:04;14.16;66.96
68189;DHT22;66299;47.514;19.218;2023-04-25T11:45:34;13.99;66.34
68189;DHT22;66299;47.514;19.218;2023-04-25T11:48:04;14.23;66.25
68189;DHT22;66299;47.514;19.218;2023-04-25T11:50:37;14.67;67.10
68189;DHT22;66299;47.514;19.218;2023-04-25T11:53:06;14.56;65.08
68189;DHT22;66299;47.514;19.218;2023-04-25T11:55:39;14.75;65.07
68189;DHT22;66299;47.514;19.218;2023-04-25T11:58:08;14.77;64.44
68189;DHT22;66299;47.514;19.218;2023-04-25T12:00:36;14.26;64.79
68189;DHT22;66299;47.514;19.218;2023-04-25T12:03:18;13.99;67.02
68189;DHT22;66299;47.514;19.218;2023-04-25T12:05:51;13.92;65.24
68189;DHT22;66299;47.514;19.218;2023-04-25T12:08:20;13.95;65.39
68189;DHT22;66299;47.514;19.218;2023-04-25T12:10:53;14.16;65.85
68189;DHT22;66299;47.514;19.218;2023-04-25T12:13:24;13.98;65.56
68189;DHT22;66299;47.514;19.218;2023-04-25T12:15:54;13.71;64.26
68189;DHT22;66299;47.514;19.218;2023-04-25T12:18:25;13.58;64.71
68189;DHT22;66299;47.514;19.218;2023-04-25T12:20:55;13.95;65.60
68189;DHT22;66299;47.514;19.218;2023-04-25T12:23:29;14.07;66.49
68189;DHT22;66299;47.514;19.218;2023-04-25T12:25:59;13.93;66.57
68189;DHT22;66299;47.514;19.218;2023-04-25T12:28:31;13.95;67.61
68189;DHT22;66299;47.514;19.218;2023-04-25T12:31:01;13.92;65.57
68189;DHT22;66299;47.514;19.218;2023-04-25T12:33:31;14.14;63.26
68189;DHT22;66299;47.514;19.218;2023-04-25T12:36:02;14.92;62.05
68189;DHT22;66299;47.514;19.218;2023-04-25T12:38:38;15.03;60.80
68189;DHT22;66299;47.514;19.218;2023-04-25T12:41:15;14.91;61.21
68189;DHT22;66299;47.514;19.218;2023-04-25T12:43:44;15.55;61.29
68189;DHT22;66299;47.514;19.218;2023-04-25T12:46:12;15.07;59.42
68189;DHT22;66299;47.514;19.218;2023-04-25T12:48:42;15.34;60.68
68189;DHT22;66299;47.514;19.218;2023-04-25T12:51:12;15.07;57.90
68189;DHT22;66299;47.514;19.218;2023-04-25T12:53:41;14.84;59.08
68189;DHT22;66299;47.514;19.218;2023-04-25T12:56:12;14.88;59.52
68189;DHT22;66299;47.514;19.218;2023-04-25T12:58:42;15.02;61.38
68189;DHT22;66299;47.514;19.218;2023-04-25T13:01:11;14.82;62.04
68189;DHT22;66299;47.514;19.218;2023-04-25T13:03:41;14.96;63.25
68189;DHT22;66299;47.514;19.218;2023-04-25T13:06:13;15.07;63.81
68189;DHT22;66299;47.514;19.218;2023-04-25T13:08:45;15.43;65.42
68189;DHT22;66299;47.514;19.218;2023-04-25T13:11:18;15.22;64.08
68189;DHT22;66299;47.514;19.218;2023-04-25T13:13:49;15.57;60.07
68189;DHT22;66299;47.514;19.218;2023-04-25T13:16:19;15.19;59.64
68189;DHT22;66299;47.514;19.218;2023-04-25T13:18:50;15.18;60.16
68189;DHT22;66299;47.514;19.218;2023-04-25T13:21:19;15.05;59.53
68189;DHT22;66299;47.514;19.218;2023-04-25T13:23:49;14.79;59.12
68189;DHT22;66299;47.514;19.218;2023-04-25T13:26:21;14.93;58.06
68189;DHT22;66299;47.514;19.218;2023-04-25T13:28:55;15.06;58.73
68189;DHT22;66299;47.514;19.218;2023-04-25T13:31:24;15.29;57.37
68189;DHT22;66299;47.514;19.218;2023-04-25T13:33:54;15.18;55.42
68189;DHT22;66299;47.514;19.218;2023-04-25T13:36:24;15.03;56.18
68189;DHT22;66299;47.514;19.218;2023-04-25T13:38:57;14.82;55.34
68189;DHT22;66299;47.514;19.218;2023-04-25T13:41:30;15.20;56.53
68189;DHT22;66299;47.514;19.218;2023-04-25T13:44:00;15.06;56.41
68189;DHT22;66299;47.514;19.218;2023-04-25T13:46:31;15.03;55.53
68189;DHT22;66299;47.514;19.218;2023-04-25T13:49:13;14.98;55.19
68189;DHT22;66299;47.514;19.218;2023-04-25T13:51:42;15.15;55.58
68189;DHT22;66299;47.514;19.218;2023-04-25T13:54:10;15.43;56.57
68189;DHT22;66299;47.514;19.218;2023-04-25T13:56:41;15.55;56.67
68189;DHT22;66299;47.514;19.218;2023-04-25T13:59:10;15.36;56.15
68189;DHT22;66299;47.514;19.218;2023-04-25T14:01:40;15.15;55.40
68189;DHT22;66299;47.514;19.218;2023-04-25T14:04:08;14.81;56.76
68189;DHT22;66299;47.514;19.218;2023-04-25T14:06:43;15.26;56.37
68189;DHT22;66299;47.514;19.218;2023-04-25T14:09:13;15.20;55.83
68189;DHT22;66299;47.514;19.218;2023-04-25T14:11:46;15.34;55.27
68189;DHT22;66299;47.514;19.218;2023-04-25T14:14:21;15.19;54.43
68189;DHT22;66299;47.514;19.218;2023-04-25T14:16:51;14.72;54.95
68189;DHT22;66299;47.514;19.218;2023-04-25T14:19:25;14.69;56.32
68189;DHT22;66299;47.514;19.218;2023-04-25T14:21:55;14.93;55.02
68189;DHT22;66299;47.514;19.218;2023-04-25T14:24:23;14.77;55.93
68189;DHT22;66299;47.514;19.218;2023-04-25T14:26:54;14.81;55.81
68189;DHT22;66299;47.514;19.218;2023-04-25T14:29:26;15.25;53.98
68189;DHT22;66299;47.514;19.218;2023-04-25T14:31:55;15.15;52.99
68189;DHT22;66299;47.514;19.218;2023-04-25T14:34:28;15.32;52.81
68189;DHT22;66299;47.514;19.218;2023-04-25T14:36:58;15.75;54.24
68189;DHT22;66299;47.514;19.218;2023-04-25T14:39:27;15.55;53.24
68189;DHT22;66299;47.514;19.218;2023-04-25T14:41:57;15.40;51.77
68189;DHT22;66299;47.514;19.218;2023-04-25T14:44:25;15.55;52.35
68189;DHT22;66299;47.514;19.218;2023-04-25T14:46:53;15.40;52.56
68189;DHT22;66299;47.514;19.218;2023-04-25T14:49:23;15.22;52.47
68189;DHT22;66299;47.514;19.218;2023-04-25T14:51:54;15.33;52.73
68189;DHT22;66299;47.514;19.218;2023-04-25T14:54:22;15.47;52.92
68189;DHT22;66299;47.514;19.218;2023-04-25T14:56:50;15.43;53.59
68189;DHT22;66299;47.514;19.218;2023-04-25T14:59:21;15.57;53.51
68189;DHT22;66299;47.514;19.218;2023-04-25T15:01:52;15.77;53.97
68189;DHT22;66299;47.514;19.218;2023-04-25T15:04:23;15.61;53.07
68189;DHT22;66299;47.514;19.218;2023-04-25T15:06:52;16.21;53.05
68189;DHT22;66299;47.514;19.218;2023-04-25T15:09:21;15.65;52.71
68189;DHT22;66299;47.514;19.218;2023-04-25T15:11:51;15.61;51.93
68189;DHT22;66299;47.514;19.218;2023-04-25T15:14:21;15.68;52.25
68189;DHT22;66299;47.514;19.218;2023-04-25T15:16:49;15.49;51.89
68189;DHT22;66299;47.514;19.218;2023-04-25T15:19:18;15.23;51.39
68189;DHT22;66299;47.514;19.218;2023-04-25T15:21:47;15.02;52.58
68189;DHT22;66299;47.514;19.218;2023-04-25T15:24:15;15.06;52.32
68189;DHT22;66299;47.514;19.218;2023-04-25T15:26:44;14.98;51.63
68189;DHT22;66299;47.514;19.218;2023-04-25T15:29:13;14.77;51.75
68189;DHT22;66299;47.514;19.218;2023-04-25T15:31:43;14.81;51.44
68189;DHT22;66299;47.514;19.218;2023-04-25T15:34:12;14.95;52.02
68189;DHT22;66299;47.514;19.218;2023-04-25T15:36:40;15.00;52.10
68189;DHT22;66299;47.514;19.218;2023-04-25T15:39:08;15.07;51.75